sensor_id;sensor_type;location;lat;lon;timestamp;temperature;humidity
15483;DHT22;7843;50.330;7.312;2022-10-16T00:01:08;12.90;99.90
15483;DHT22;7843;50.330;7.312;2022-10-16T00:03:35;12.90;99.90
15483;DHT22;7843;50.330;7.312;2022-10-16T00:06:02;12.90;99.90
15483;DHT22;7843;50.330;7.312;2022-10-16T00:08:29;12.90;99.90
15483;DHT22;7843;50.330;7.312;2022-10-16T00:11:08;12.90;99.90
15483;DHT22;7843;50.330;7.312;2022-10-16T00:13:37;12.90;99.90
15483;DHT22;7843;50.330;7.312;2022-10-16T00:16:05;12.90;99.90
15483;DHT22;7843;50.330;7.312;2022-10-16T00:18:32;12.90;99.90
15483;DHT22;7843;50.330;7.312;2022-10-16T00:21:14;12.90;99.90
15483;DHT22;7843;50.330;7.312;2022-10-16T00:23:41;12.90;99.90
15483;DHT22;7843;50.330;7.312;2022-10-16T00:26:11;12.90;99.90
15483;DHT22;7843;50.330;7.312;2022-10-16T00:28:38;12.90;99.90
15483;DHT22;7843;50.330;7.312;2022-10-16T00:31:07;12.90;99.90
15483;DHT22;7843;50.330;7.312;2022-10-16T00:33:35;13.00;99.90
15483;DHT22;7843;50.330;7.312;2022-10-16T00:36:04;13.00;99.90
15483;DHT22;7843;50.330;7.312;2022-10-16T00:38:31;12.90;99.90
15483;DHT22;7843;50.330;7.312;2022-10-16T00:40:58;13.00;99.90
15483;DHT22;7843;50.330;7.312;2022-10-16T00:46:21;13.00;99.90
15483;DHT22;7843;50.330;7.312;2022-10-16T00:51:34;13.00;99.90
15483;DHT22;7843;50.330;7.312;2022-10-16T00:54:04;13.00;99.90
15483;DHT22;7843;50.330;7.312;2022-10-16T00:56:33;13.00;99.90
15483;DHT22;7843;50.330;7.312;2022-10-16T00:59:04;13.00;99.90
15483;DHT22;7843;50.330;7.312;2022-10-16T01:01:32;13.00;99.90
15483;DHT22;7843;50.330;7.312;2022-10-16T01:03:59;13.00;99.90
15483;DHT22;7843;50.330;7.312;2022-10-16T01:06:43;12.90;99.90
15483;DHT22;7843;50.330;7.312;2022-10-16T01:09:27;12.90;99.90
15483;DHT22;7843;50.330;7.312;2022-10-16T01:18:04;13.00;99.90
15483;DHT22;7843;50.330;7.312;2022-10-16T01:20:36;12.90;99.90
15483;DHT22;7843;50.330;7.312;2022-10-16T01:28:57;13.00;99.90
15483;DHT22;7843;50.330;7.312;2022-10-16T01:31:32;13.00;99.90
15483;DHT22;7843;50.330;7.312;2022-10-16T01:34:08;13.00;99.90
15483;DHT22;7843;50.330;7.312;2022-10-16T01:37:02;13.00;99.90
15483;DHT22;7843;50.330;7.312;2022-10-16T01:39:33;13.00;99.90
15483;DHT22;7843;50.330;7.312;2022-10-16T01:42:07;13.00;99.90
15483;DHT22;7843;50.330;7.312;2022-10-16T01:44:36;13.00;99.90
15483;DHT22;7843;50.330;7.312;2022-10-16T01:47:04;13.00;99.90
15483;DHT22;7843;50.330;7.312;2022-10-16T01:49:34;13.00;99.90
15483;DHT22;7843;50.330;7.312;2022-10-16T01:52:06;12.90;99.90
15483;DHT22;7843;50.330;7.312;2022-10-16T01:54:35;12.90;99.90
15483;DHT22;7843;50.330;7.312;2022-10-16T01:57:05;12.90;99.90
15483;DHT22;7843;50.330;7.312;2022-10-16T01:59:37;13.00;99.90
15483;DHT22;7843;50.330;7.312;2022-10-16T02:02:07;13.00;99.90
15483;DHT22;7843;50.330;7.312;2022-10-16T02:04:46;13.00;99.90
15483;DHT22;7843;50.330;7.312;2022-10-16T02:07:14;13.10;99.90
15483;DHT22;7843;50.330;7.312;2022-10-16T02:09:41;13.10;99.90
15483;DHT22;7843;50.330;7.312;2022-10-16T02:12:15;13.10;99.90
15483;DHT22;7843;50.330;7.312;2022-10-16T02:14:46;13.10;99.90
15483;DHT22;7843;50.330;7.312;2022-10-16T02:17:15;13.10;99.90
15483;DHT22;7843;50.330;7.312;2022-10-16T02:19:42;13.10;99.90
15483;DHT22;7843;50.330;7.312;2022-10-16T02:22:38;13.10;99.90
15483;DHT22;7843;50.330;7.312;2022-10-16T02:25:19;13.20;99.90
15483;DHT22;7843;50.330;7.312;2022-10-16T02:28:16;13.20;99.90
15483;DHT22;7843;50.330;7.312;2022-10-16T02:33:18;13.20;99.90
15483;DHT22;7843;50.330;7.312;2022-10-16T02:35:47;13.20;99.90
15483;DHT22;7843;50.330;7.312;2022-10-16T02:38:16;13.20;99.90
15483;DHT22;7843;50.330;7.312;2022-10-16T02:40:44;13.20;99.90
15483;DHT22;7843;50.330;7.312;2022-10-16T02:43:11;13.20;99.90
15483;DHT22;7843;50.330;7.312;2022-10-16T02:45:38;13.20;99.90
15483;DHT22;7843;50.330;7.312;2022-10-16T02:48:05;13.20;99.90
15483;DHT22;7843;50.330;7.312;2022-10-16T02:50:32;13.30;99.90
15483;DHT22;7843;50.330;7.312;2022-10-16T02:52:59;13.20;99.90
15483;DHT22;7843;50.330;7.312;2022-10-16T02:55:25;13.20;99.90
15483;DHT22;7843;50.330;7.312;2022-10-16T02:57:54;13.20;99.90
15483;DHT22;7843;50.330;7.312;2022-10-16T03:00:21;13.20;99.90
15483;DHT22;7843;50.330;7.312;2022-10-16T03:02:48;13.20;99.90
15483;DHT22;7843;50.330;7.312;2022-10-16T03:05:15;13.20;99.90
15483;DHT22;7843;50.330;7.312;2022-10-16T03:07:42;13.20;99.90
15483;DHT22;7843;50.330;7.312;2022-10-16T03:10:09;13.20;99.90
15483;DHT22;7843;50.330;7.312;2022-10-16T03:12:36;13.20;99.90
15483;DHT22;7843;50.330;7.312;2022-10-16T03:15:03;13.20;99.90
15483;DHT22;7843;50.330;7.312;2022-10-16T03:17:31;13.10;99.90
15483;DHT22;7843;50.330;7.312;2022-10-16T03:19:58;13.10;99.90
15483;DHT22;7843;50.330;7.312;2022-10-16T03:22:24;13.10;99.90
15483;DHT22;7843;50.330;7.312;2022-10-16T03:24:51;13.10;99.90
15483;DHT22;7843;50.330;7.312;2022-10-16T03:27:18;13.10;99.90
15483;DHT22;7843;50.330;7.312;2022-10-16T03:29:45;13.10;99.90
15483;DHT22;7843;50.330;7.312;2022-10-16T03:32:11;13.10;99.90
15483;DHT22;7843;50.330;7.312;2022-10-16T03:34:38;13.10;99.90
15483;DHT22;7843;50.330;7.312;2022-10-16T03:37:05;13.10;99.90
15483;DHT22;7843;50.330;7.312;2022-10-16T03:39:31;13.20;99.90
15483;DHT22;7843;50.330;7.312;2022-10-16T03:41:58;13.20;99.90
15483;DHT22;7843;50.330;7.312;2022-10-16T03:44:25;13.20;99.90
15483;DHT22;7843;50.330;7.312;2022-10-16T03:46:51;13.20;99.90
15483;DHT22;7843;50.330;7.312;2022-10-16T03:49:18;13.20;99.90
15483;DHT22;7843;50.330;7.312;2022-10-16T03:51:45;13.20;99.90
15483;DHT22;7843;50.330;7.312;2022-10-16T03:54:12;13.20;99.90
15483;DHT22;7843;50.330;7.312;2022-10-16T03:56:39;13.30;99.90
15483;DHT22;7843;50.330;7.312;2022-10-16T03:59:06;13.30;99.90
15483;DHT22;7843;50.330;7.312;2022-10-16T04:01:32;13.30;99.90
15483;DHT22;7843;50.330;7.312;2022-10-16T04:03:59;13.30;99.90
15483;DHT22;7843;50.330;7.312;2022-10-16T04:06:26;13.30;99.90
15483;DHT22;7843;50.330;7.312;2022-10-16T04:08:52;13.30;99.90
15483;DHT22;7843;50.330;7.312;2022-10-16T04:11:19;13.30;99.90
15483;DHT22;7843;50.330;7.312;2022-10-16T04:13:46;13.30;99.90
15483;DHT22;7843;50.330;7.312;2022-10-16T04:16:13;13.30;99.90
15483;DHT22;7843;50.330;7.312;2022-10-16T04:18:39;13.30;99.90
15483;DHT22;7843;50.330;7.312;2022-10-16T04:21:07;13.30;99.90
15483;DHT22;7843;50.330;7.312;2022-10-16T04:23:33;13.30;99.90
15483;DHT22;7843;50.330;7.312;2022-10-16T04:26:00;13.30;99.90
15483;DHT22;7843;50.330;7.312;2022-10-16T04:28:28;13.30;99.90
15483;DHT22;7843;50.330;7.312;2022-10-16T04:30:55;13.30;99.90
15483;DHT22;7843;50.330;7.312;2022-10-16T04:33:22;13.30;99.90
15483;DHT22;7843;50.330;7.312;2022-10-16T04:35:48;13.30;99.90
15483;DHT22;7843;50.330;7.312;2022-10-16T04:38:15;13.30;99.90
15483;DHT22;7843;50.330;7.312;2022-10-16T04:40:42;13.30;99.90
15483;DHT22;7843;50.330;7.312;2022-10-16T04:43:09;13.30;99.90
15483;DHT22;7843;50.330;7.312;2022-10-16T04:45:36;13.30;99.90
15483;DHT22;7843;50.330;7.312;2022-10-16T04:48:03;13.30;99.90
15483;DHT22;7843;50.330;7.312;2022-10-16T04:50:29;13.30;99.90
15483;DHT22;7843;50.330;7.312;2022-10-16T04:52:56;13.20;99.90
15483;DHT22;7843;50.330;7.312;2022-10-16T04:55:23;13.20;99.90
15483;DHT22;7843;50.330;7.312;2022-10-16T04:57:49;13.20;99.90
15483;DHT22;7843;50.330;7.312;2022-10-16T05:00:16;13.10;99.90
15483;DHT22;7843;50.330;7.312;2022-10-16T05:02:43;13.10;99.90
15483;DHT22;7843;50.330;7.312;2022-10-16T05:05:09;13.10;99.90
15483;DHT22;7843;50.330;7.312;2022-10-16T05:07:36;13.10;99.90
15483;DHT22;7843;50.330;7.312;2022-10-16T05:10:03;13.10;99.90
15483;DHT22;7843;50.330;7.312;2022-10-16T05:12:30;13.10;99.90
15483;DHT22;7843;50.330;7.312;2022-10-16T05:14:57;13.00;99.90
15483;DHT22;7843;50.330;7.312;2022-10-16T05:17:25;13.00;99.90
15483;DHT22;7843;50.330;7.312;2022-10-16T05:19:52;13.00;99.90
15483;DHT22;7843;50.330;7.312;2022-10-16T05:22:19;13.00;99.90
15483;DHT22;7843;50.330;7.312;2022-10-16T05:24:45;13.00;99.90
15483;DHT22;7843;50.330;7.312;2022-10-16T05:27:12;13.00;99.90
15483;DHT22;7843;50.330;7.312;2022-10-16T05:29:49;13.00;99.90
15483;DHT22;7843;50.330;7.312;2022-10-16T05:32:17;13.00;99.90
15483;DHT22;7843;50.330;7.312;2022-10-16T05:34:44;13.00;99.90
15483;DHT22;7843;50.330;7.312;2022-10-16T05:37:11;13.00;99.90
15483;DHT22;7843;50.330;7.312;2022-10-16T05:39:39;13.00;99.90
15483;DHT22;7843;50.330;7.312;2022-10-16T05:42:05;13.00;99.90
15483;DHT22;7843;50.330;7.312;2022-10-16T05:44:33;13.00;99.90
15483;DHT22;7843;50.330;7.312;2022-10-16T05:47:04;13.00;99.90
15483;DHT22;7843;50.330;7.312;2022-10-16T05:49:31;13.00;99.90
15483;DHT22;7843;50.330;7.312;2022-10-16T05:51:58;12.90;99.90
15483;DHT22;7843;50.330;7.312;2022-10-16T05:54:25;13.00;99.90
15483;DHT22;7843;50.330;7.312;2022-10-16T05:56:52;12.90;99.90
15483;DHT22;7843;50.330;7.312;2022-10-16T05:59:18;12.90;99.90
15483;DHT22;7843;50.330;7.312;2022-10-16T06:01:45;12.90;99.90
15483;DHT22;7843;50.330;7.312;2022-10-16T06:04:12;12.90;99.90
15483;DHT22;7843;50.330;7.312;2022-10-16T06:06:39;12.90;99.90
15483;DHT22;7843;50.330;7.312;2022-10-16T06:09:06;12.90;99.90
15483;DHT22;7843;50.330;7.312;2022-10-16T06:11:33;12.90;99.90
15483;DHT22;7843;50.330;7.312;2022-10-16T06:14:01;13.00;99.90
15483;DHT22;7843;50.330;7.312;2022-10-16T06:16:34;13.00;99.90
15483;DHT22;7843;50.330;7.312;2022-10-16T06:19:01;13.00;99.90
15483;DHT22;7843;50.330;7.312;2022-10-16T06:21:29;13.00;99.90
15483;DHT22;7843;50.330;7.312;2022-10-16T06:23:56;13.00;99.90
15483;DHT22;7843;50.330;7.312;2022-10-16T06:26:26;13.00;99.90
15483;DHT22;7843;50.330;7.312;2022-10-16T06:28:57;13.00;99.90
15483;DHT22;7843;50.330;7.312;2022-10-16T06:31:25;13.00;99.90
15483;DHT22;7843;50.330;7.312;2022-10-16T06:33:57;13.00;99.90
15483;DHT22;7843;50.330;7.312;2022-10-16T06:36:25;13.00;99.90
15483;DHT22;7843;50.330;7.312;2022-10-16T06:38:52;13.10;99.90
15483;DHT22;7843;50.330;7.312;2022-10-16T06:41:20;13.10;99.90
15483;DHT22;7843;50.330;7.312;2022-10-16T06:43:47;13.10;99.90
15483;DHT22;7843;50.330;7.312;2022-10-16T06:46:17;13.10;99.90
15483;DHT22;7843;50.330;7.312;2022-10-16T06:48:44;13.20;99.90
15483;DHT22;7843;50.330;7.312;2022-10-16T06:51:14;13.20;99.90
15483;DHT22;7843;50.330;7.312;2022-10-16T06:53:43;13.20;99.90
15483;DHT22;7843;50.330;7.312;2022-10-16T06:56:24;13.20;99.90
15483;DHT22;7843;50.330;7.312;2022-10-16T06:58:52;13.20;99.90
15483;DHT22;7843;50.330;7.312;2022-10-16T07:01:22;13.30;99.90
15483;DHT22;7843;50.330;7.312;2022-10-16T07:03:49;13.30;99.90
15483;DHT22;7843;50.330;7.312;2022-10-16T07:06:18;13.30;99.90
15483;DHT22;7843;50.330;7.312;2022-10-16T07:08:46;13.40;99.90
15483;DHT22;7843;50.330;7.312;2022-10-16T07:11:18;13.40;99.90
15483;DHT22;7843;50.330;7.312;2022-10-16T07:13:46;13.40;99.90
15483;DHT22;7843;50.330;7.312;2022-10-16T07:16:15;13.40;99.90
15483;DHT22;7843;50.330;7.312;2022-10-16T07:18:43;13.50;99.90
15483;DHT22;7843;50.330;7.312;2022-10-16T07:21:17;13.50;99.90
15483;DHT22;7843;50.330;7.312;2022-10-16T07:23:52;13.50;99.90
15483;DHT22;7843;50.330;7.312;2022-10-16T07:26:19;13.50;99.90
15483;DHT22;7843;50.330;7.312;2022-10-16T07:28:46;13.50;99.90
15483;DHT22;7843;50.330;7.312;2022-10-16T07:31:14;13.60;99.90
15483;DHT22;7843;50.330;7.312;2022-10-16T07:33:43;13.60;99.90
15483;DHT22;7843;50.330;7.312;2022-10-16T07:36:12;13.60;99.90
15483;DHT22;7843;50.330;7.312;2022-10-16T07:38:41;13.60;99.90
15483;DHT22;7843;50.330;7.312;2022-10-16T07:41:11;13.70;99.90
15483;DHT22;7843;50.330;7.312;2022-10-16T07:43:38;13.70;99.90
15483;DHT22;7843;50.330;7.312;2022-10-16T07:46:05;13.80;99.90
15483;DHT22;7843;50.330;7.312;2022-10-16T07:48:34;13.80;99.90
15483;DHT22;7843;50.330;7.312;2022-10-16T07:51:03;13.90;99.90
15483;DHT22;7843;50.330;7.312;2022-10-16T07:53:30;13.90;99.90
15483;DHT22;7843;50.330;7.312;2022-10-16T07:56:03;13.90;99.90
15483;DHT22;7843;50.330;7.312;2022-10-16T07:58:30;14.00;99.90
15483;DHT22;7843;50.330;7.312;2022-10-16T08:00:58;14.00;99.90
15483;DHT22;7843;50.330;7.312;2022-10-16T08:03:25;14.10;99.90
15483;DHT22;7843;50.330;7.312;2022-10-16T08:05:52;14.20;99.90
15483;DHT22;7843;50.330;7.312;2022-10-16T08:08:19;14.20;99.90
15483;DHT22;7843;50.330;7.312;2022-10-16T08:10:46;14.30;99.90
15483;DHT22;7843;50.330;7.312;2022-10-16T08:13:13;14.40;99.90
15483;DHT22;7843;50.330;7.312;2022-10-16T08:15:45;14.50;99.90
15483;DHT22;7843;50.330;7.312;2022-10-16T08:18:14;14.50;99.90
15483;DHT22;7843;50.330;7.312;2022-10-16T08:20:42;14.60;99.90
15483;DHT22;7843;50.330;7.312;2022-10-16T08:23:12;14.60;99.90
15483;DHT22;7843;50.330;7.312;2022-10-16T08:25:40;14.70;99.90
15483;DHT22;7843;50.330;7.312;2022-10-16T08:28:09;14.70;99.90
15483;DHT22;7843;50.330;7.312;2022-10-16T08:30:36;14.80;99.90
15483;DHT22;7843;50.330;7.312;2022-10-16T08:33:03;14.80;99.90
15483;DHT22;7843;50.330;7.312;2022-10-16T08:35:30;14.90;99.90
15483;DHT22;7843;50.330;7.312;2022-10-16T08:37:57;14.90;99.90
15483;DHT22;7843;50.330;7.312;2022-10-16T08:40:28;15.00;99.90
15483;DHT22;7843;50.330;7.312;2022-10-16T08:45:40;15.10;99.90
15483;DHT22;7843;50.330;7.312;2022-10-16T08:51:08;15.10;99.90
15483;DHT22;7843;50.330;7.312;2022-10-16T08:53:46;15.20;99.90
15483;DHT22;7843;50.330;7.312;2022-10-16T08:56:15;15.40;99.90
15483;DHT22;7843;50.330;7.312;2022-10-16T08:58:45;15.60;99.90
15483;DHT22;7843;50.330;7.312;2022-10-16T09:01:19;15.70;99.90
15483;DHT22;7843;50.330;7.312;2022-10-16T09:04:04;15.70;99.90
15483;DHT22;7843;50.330;7.312;2022-10-16T09:07:09;15.70;99.90
15483;DHT22;7843;50.330;7.312;2022-10-16T09:09:52;15.70;99.90
15483;DHT22;7843;50.330;7.312;2022-10-16T09:12:26;15.80;99.90
15483;DHT22;7843;50.330;7.312;2022-10-16T09:23:26;15.80;99.90
15483;DHT22;7843;50.330;7.312;2022-10-16T09:25:54;15.70;99.90
15483;DHT22;7843;50.330;7.312;2022-10-16T09:28:22;15.70;99.90
15483;DHT22;7843;50.330;7.312;2022-10-16T09:30:49;15.80;99.90
15483;DHT22;7843;50.330;7.312;2022-10-16T09:33:19;15.90;99.90
15483;DHT22;7843;50.330;7.312;2022-10-16T09:35:51;16.00;99.90
15483;DHT22;7843;50.330;7.312;2022-10-16T09:38:28;16.10;99.90
15483;DHT22;7843;50.330;7.312;2022-10-16T09:40:56;16.20;99.90
15483;DHT22;7843;50.330;7.312;2022-10-16T09:43:40;16.30;99.90
15483;DHT22;7843;50.330;7.312;2022-10-16T09:46:19;16.20;99.90
15483;DHT22;7843;50.330;7.312;2022-10-16T09:48:49;16.10;99.90
15483;DHT22;7843;50.330;7.312;2022-10-16T09:51:23;16.00;99.90
15483;DHT22;7843;50.330;7.312;2022-10-16T09:54:02;16.00;99.90
15483;DHT22;7843;50.330;7.312;2022-10-16T09:56:31;16.10;99.90
15483;DHT22;7843;50.330;7.312;2022-10-16T10:01:48;16.40;99.90
15483;DHT22;7843;50.330;7.312;2022-10-16T10:04:21;16.50;99.90
15483;DHT22;7843;50.330;7.312;2022-10-16T10:06:53;16.50;99.90
15483;DHT22;7843;50.330;7.312;2022-10-16T10:09:26;16.50;99.90
15483;DHT22;7843;50.330;7.312;2022-10-16T10:11:58;16.50;99.90
15483;DHT22;7843;50.330;7.312;2022-10-16T10:14:26;16.50;99.90
15483;DHT22;7843;50.330;7.312;2022-10-16T10:19:46;16.70;99.90
15483;DHT22;7843;50.330;7.312;2022-10-16T10:25:04;16.90;99.90
15483;DHT22;7843;50.330;7.312;2022-10-16T10:36:19;17.50;99.90
15483;DHT22;7843;50.330;7.312;2022-10-16T10:46:38;17.40;99.90
15483;DHT22;7843;50.330;7.312;2022-10-16T10:49:48;17.30;99.90
15483;DHT22;7843;50.330;7.312;2022-10-16T10:52:41;17.30;99.90
15483;DHT22;7843;50.330;7.312;2022-10-16T11:08:59;17.70;99.90
15483;DHT22;7843;50.330;7.312;2022-10-16T11:11:38;17.80;99.90
15483;DHT22;7843;50.330;7.312;2022-10-16T11:14:16;17.80;99.90
15483;DHT22;7843;50.330;7.312;2022-10-16T11:16:49;17.80;99.90
15483;DHT22;7843;50.330;7.312;2022-10-16T11:22:03;17.70;99.40
15483;DHT22;7843;50.330;7.312;2022-10-16T11:25:22;17.70;99.90
15483;DHT22;7843;50.330;7.312;2022-10-16T11:30:27;18.20;99.90
15483;DHT22;7843;50.330;7.312;2022-10-16T11:36:25;18.90;99.30
15483;DHT22;7843;50.330;7.312;2022-10-16T11:39:02;18.90;99.40
15483;DHT22;7843;50.330;7.312;2022-10-16T11:50:45;19.00;98.00
15483;DHT22;7843;50.330;7.312;2022-10-16T11:56:00;19.20;96.30
15483;DHT22;7843;50.330;7.312;2022-10-16T12:04:21;19.50;95.60
15483;DHT22;7843;50.330;7.312;2022-10-16T12:07:17;19.70;95.30
15483;DHT22;7843;50.330;7.312;2022-10-16T12:09:45;19.80;95.10
15483;DHT22;7843;50.330;7.312;2022-10-16T12:12:37;19.80;93.10
15483;DHT22;7843;50.330;7.312;2022-10-16T12:17:56;19.60;94.00
15483;DHT22;7843;50.330;7.312;2022-10-16T12:20:31;19.60;94.40
15483;DHT22;7843;50.330;7.312;2022-10-16T12:23:02;19.60;96.80
15483;DHT22;7843;50.330;7.312;2022-10-16T12:25:31;19.60;95.90
15483;DHT22;7843;50.330;7.312;2022-10-16T12:28:17;19.70;95.80
15483;DHT22;7843;50.330;7.312;2022-10-16T12:30:53;19.70;96.10
15483;DHT22;7843;50.330;7.312;2022-10-16T12:33:32;19.90;94.30
15483;DHT22;7843;50.330;7.312;2022-10-16T12:36:02;19.80;94.80
15483;DHT22;7843;50.330;7.312;2022-10-16T12:38:45;19.70;95.00
15483;DHT22;7843;50.330;7.312;2022-10-16T12:41:12;19.70;94.60
15483;DHT22;7843;50.330;7.312;2022-10-16T12:43:50;19.70;95.40
15483;DHT22;7843;50.330;7.312;2022-10-16T12:48:44;19.70;96.40
15483;DHT22;7843;50.330;7.312;2022-10-16T12:54:11;19.90;96.00
15483;DHT22;7843;50.330;7.312;2022-10-16T12:59:21;21.10;92.80
15483;DHT22;7843;50.330;7.312;2022-10-16T13:08:35;21.80;88.70
15483;DHT22;7843;50.330;7.312;2022-10-16T13:10:42;21.30;91.50
15483;DHT22;7843;50.330;7.312;2022-10-16T13:18:52;20.40;93.60
15483;DHT22;7843;50.330;7.312;2022-10-16T13:22:29;20.10;93.00
15483;DHT22;7843;50.330;7.312;2022-10-16T13:24:56;19.90;96.70
15483;DHT22;7843;50.330;7.312;2022-10-16T13:30:16;19.60;95.20
15483;DHT22;7843;50.330;7.312;2022-10-16T13:32:49;19.60;96.40
15483;DHT22;7843;50.330;7.312;2022-10-16T13:35:25;19.60;96.40
15483;DHT22;7843;50.330;7.312;2022-10-16T13:40:30;19.50;95.60
15483;DHT22;7843;50.330;7.312;2022-10-16T13:42:59;19.50;95.60
15483;DHT22;7843;50.330;7.312;2022-10-16T13:45:26;19.60;96.00
15483;DHT22;7843;50.330;7.312;2022-10-16T13:48:10;19.70;95.00
15483;DHT22;7843;50.330;7.312;2022-10-16T13:50:38;19.60;96.20
15483;DHT22;7843;50.330;7.312;2022-10-16T13:53:07;19.70;95.30
15483;DHT22;7843;50.330;7.312;2022-10-16T13:55:39;19.60;96.40
15483;DHT22;7843;50.330;7.312;2022-10-16T13:58:13;19.50;97.70
15483;DHT22;7843;50.330;7.312;2022-10-16T14:00:41;19.50;97.10
15483;DHT22;7843;50.330;7.312;2022-10-16T14:03:19;19.40;95.90
15483;DHT22;7843;50.330;7.312;2022-10-16T14:05:55;19.40;96.90
15483;DHT22;7843;50.330;7.312;2022-10-16T14:08:25;19.30;96.10
15483;DHT22;7843;50.330;7.312;2022-10-16T14:10:58;19.20;96.30
15483;DHT22;7843;50.330;7.312;2022-10-16T14:13:43;19.00;97.40
15483;DHT22;7843;50.330;7.312;2022-10-16T14:16:20;19.00;97.80
15483;DHT22;7843;50.330;7.312;2022-10-16T14:18:58;18.90;99.10
15483;DHT22;7843;50.330;7.312;2022-10-16T14:21:26;18.80;99.30
15483;DHT22;7843;50.330;7.312;2022-10-16T14:23:54;18.70;99.90
15483;DHT22;7843;50.330;7.312;2022-10-16T14:26:23;18.60;99.90
15483;DHT22;7843;50.330;7.312;2022-10-16T14:29:04;18.60;99.50
15483;DHT22;7843;50.330;7.312;2022-10-16T14:31:36;18.60;98.80
15483;DHT22;7843;50.330;7.312;2022-10-16T14:34:03;18.60;99.00
15483;DHT22;7843;50.330;7.312;2022-10-16T14:36:31;18.50;99.70
15483;DHT22;7843;50.330;7.312;2022-10-16T14:39:17;18.40;99.90
15483;DHT22;7843;50.330;7.312;2022-10-16T14:41:47;18.30;99.90
15483;DHT22;7843;50.330;7.312;2022-10-16T14:44:16;18.20;99.90
15483;DHT22;7843;50.330;7.312;2022-10-16T14:46:44;18.30;99.80
15483;DHT22;7843;50.330;7.312;2022-10-16T14:51:39;18.40;99.90
15483;DHT22;7843;50.330;7.312;2022-10-16T14:54:16;18.50;99.90
15483;DHT22;7843;50.330;7.312;2022-10-16T14:56:54;18.60;99.90
15483;DHT22;7843;50.330;7.312;2022-10-16T14:59:32;18.70;99.60
15483;DHT22;7843;50.330;7.312;2022-10-16T15:02:02;18.70;99.20
15483;DHT22;7843;50.330;7.312;2022-10-16T15:04:35;18.60;99.20
15483;DHT22;7843;50.330;7.312;2022-10-16T15:07:02;18.50;99.90
15483;DHT22;7843;50.330;7.312;2022-10-16T15:09:29;18.40;99.90
15483;DHT22;7843;50.330;7.312;2022-10-16T15:11:55;18.30;99.90
15483;DHT22;7843;50.330;7.312;2022-10-16T15:14:22;18.20;99.90
15483;DHT22;7843;50.330;7.312;2022-10-16T15:16:49;18.10;99.90
15483;DHT22;7843;50.330;7.312;2022-10-16T15:19:15;18.00;99.90
15483;DHT22;7843;50.330;7.312;2022-10-16T15:21:42;17.90;99.90
15483;DHT22;7843;50.330;7.312;2022-10-16T15:24:12;17.80;99.90
15483;DHT22;7843;50.330;7.312;2022-10-16T15:26:40;17.80;99.90
15483;DHT22;7843;50.330;7.312;2022-10-16T15:29:07;17.70;99.90
15483;DHT22;7843;50.330;7.312;2022-10-16T15:31:34;17.70;99.90
15483;DHT22;7843;50.330;7.312;2022-10-16T15:34:01;17.80;99.90
15483;DHT22;7843;50.330;7.312;2022-10-16T15:36:32;17.80;99.90
15483;DHT22;7843;50.330;7.312;2022-10-16T15:39:04;17.70;99.90
15483;DHT22;7843;50.330;7.312;2022-10-16T15:41:31;17.60;99.90
15483;DHT22;7843;50.330;7.312;2022-10-16T15:43:58;17.60;99.90
15483;DHT22;7843;50.330;7.312;2022-10-16T15:46:25;17.50;99.90
15483;DHT22;7843;50.330;7.312;2022-10-16T15:48:56;17.40;99.90
15483;DHT22;7843;50.330;7.312;2022-10-16T15:51:24;17.40;99.90
15483;DHT22;7843;50.330;7.312;2022-10-16T15:53:51;17.30;99.90
15483;DHT22;7843;50.330;7.312;2022-10-16T15:56:19;17.40;99.90
15483;DHT22;7843;50.330;7.312;2022-10-16T15:58:46;17.30;99.90
15483;DHT22;7843;50.330;7.312;2022-10-16T16:01:12;17.20;99.90
15483;DHT22;7843;50.330;7.312;2022-10-16T16:03:39;17.10;99.90
15483;DHT22;7843;50.330;7.312;2022-10-16T16:06:11;17.10;99.90
15483;DHT22;7843;50.330;7.312;2022-10-16T16:08:38;17.00;99.90
15483;DHT22;7843;50.330;7.312;2022-10-16T16:11:10;17.00;99.90
15483;DHT22;7843;50.330;7.312;2022-10-16T16:13:37;16.90;99.90
15483;DHT22;7843;50.330;7.312;2022-10-16T16:16:09;16.90;99.90
15483;DHT22;7843;50.330;7.312;2022-10-16T16:18:37;16.80;99.90
15483;DHT22;7843;50.330;7.312;2022-10-16T16:21:05;16.80;99.90
15483;DHT22;7843;50.330;7.312;2022-10-16T16:23:32;16.70;99.90
15483;DHT22;7843;50.330;7.312;2022-10-16T16:26:13;16.60;99.90
15483;DHT22;7843;50.330;7.312;2022-10-16T16:28:42;16.60;99.90
15483;DHT22;7843;50.330;7.312;2022-10-16T16:31:09;16.50;99.90
15483;DHT22;7843;50.330;7.312;2022-10-16T16:33:35;16.50;99.90
15483;DHT22;7843;50.330;7.312;2022-10-16T16:36:04;16.50;99.90
15483;DHT22;7843;50.330;7.312;2022-10-16T16:38:33;16.50;99.90
15483;DHT22;7843;50.330;7.312;2022-10-16T16:41:29;16.40;99.90
15483;DHT22;7843;50.330;7.312;2022-10-16T16:44:05;16.40;99.90
15483;DHT22;7843;50.330;7.312;2022-10-16T16:46:33;16.30;99.90
15483;DHT22;7843;50.330;7.312;2022-10-16T16:49:00;16.30;99.90
15483;DHT22;7843;50.330;7.312;2022-10-16T16:51:27;16.30;99.90
15483;DHT22;7843;50.330;7.312;2022-10-16T16:53:54;16.20;99.90
15483;DHT22;7843;50.330;7.312;2022-10-16T16:56:22;16.20;99.90
15483;DHT22;7843;50.330;7.312;2022-10-16T16:58:51;16.20;99.90
15483;DHT22;7843;50.330;7.312;2022-10-16T17:01:18;16.20;99.90
15483;DHT22;7843;50.330;7.312;2022-10-16T17:03:47;16.10;99.90
15483;DHT22;7843;50.330;7.312;2022-10-16T17:06:15;16.10;99.90
15483;DHT22;7843;50.330;7.312;2022-10-16T17:08:44;16.10;99.90
15483;DHT22;7843;50.330;7.312;2022-10-16T17:11:15;16.00;99.90
15483;DHT22;7843;50.330;7.312;2022-10-16T17:13:42;16.00;99.90
15483;DHT22;7843;50.330;7.312;2022-10-16T17:16:09;15.90;99.90
15483;DHT22;7843;50.330;7.312;2022-10-16T17:18:37;15.90;99.90
15483;DHT22;7843;50.330;7.312;2022-10-16T17:21:06;15.80;99.90
15483;DHT22;7843;50.330;7.312;2022-10-16T17:23:34;15.70;99.90
15483;DHT22;7843;50.330;7.312;2022-10-16T17:26:27;15.70;99.90
15483;DHT22;7843;50.330;7.312;2022-10-16T17:28:56;15.60;99.90
15483;DHT22;7843;50.330;7.312;2022-10-16T17:31:29;15.50;99.90
15483;DHT22;7843;50.330;7.312;2022-10-16T17:33:58;15.40;99.90
15483;DHT22;7843;50.330;7.312;2022-10-16T17:36:26;15.30;99.90
15483;DHT22;7843;50.330;7.312;2022-10-16T17:39:00;15.30;99.90
15483;DHT22;7843;50.330;7.312;2022-10-16T17:41:30;15.20;99.90
15483;DHT22;7843;50.330;7.312;2022-10-16T17:43:57;15.20;99.90
15483;DHT22;7843;50.330;7.312;2022-10-16T17:46:24;15.10;99.90
15483;DHT22;7843;50.330;7.312;2022-10-16T17:48:52;15.10;99.90
15483;DHT22;7843;50.330;7.312;2022-10-16T17:51:28;15.00;99.90
15483;DHT22;7843;50.330;7.312;2022-10-16T17:53:57;14.90;99.90
15483;DHT22;7843;50.330;7.312;2022-10-16T17:56:25;14.80;99.90
15483;DHT22;7843;50.330;7.312;2022-10-16T17:58:54;14.80;99.90
15483;DHT22;7843;50.330;7.312;2022-10-16T18:01:24;14.70;99.90
15483;DHT22;7843;50.330;7.312;2022-10-16T18:04:06;14.70;99.90
15483;DHT22;7843;50.330;7.312;2022-10-16T18:06:35;14.70;99.90
15483;DHT22;7843;50.330;7.312;2022-10-16T18:09:04;14.60;99.90
15483;DHT22;7843;50.330;7.312;2022-10-16T18:11:31;14.50;99.90
15483;DHT22;7843;50.330;7.312;2022-10-16T18:13:58;14.50;99.90
15483;DHT22;7843;50.330;7.312;2022-10-16T18:16:27;14.50;99.90